Drummond, Idaho
Current Conditions -  °F | °C
As of 9:56 PM on Friday 24 Oct 2014 (Local Time) from KDIJ Reporting Station
Clear Clear  
Wind Chill: 39°   Ceiling: Unl
Heat Index: 39°   Visibility: 10mi
Dew Point: 27°   Wind: 3mph
Humidity: 63%   Direction: 130°SE
Pressure: 30.2"   Gusts: NA
Location:  44.0126°N, 111.37°W
Report Text: KDIJ 250356Z AUTO 13003KT 10SM CLR 04/M03 A3020 RMK AO2 T00381027 SLP188
Loading
Personal Weather Stations






























Interactive Weather Map
Tropical Storm Tracking
New forecast layout! Learn more

10-Day Weather Forecast

Advertisements
Track Severe Weather on mobile